createdAt,value
2023-03-17T00:01:51.308Z,32.70
2023-03-17T00:04:19.540Z,32.20
2023-03-17T00:06:47.612Z,33.75
2023-03-17T00:09:17.437Z,32.80
2023-03-17T00:11:45.639Z,28.77
2023-03-17T00:14:12.896Z,28.40
2023-03-17T00:16:45.568Z,28.75
2023-03-17T00:19:32.387Z,28.77
2023-03-17T00:22:00.966Z,35.20
2023-03-17T00:24:28.582Z,36.63
2023-03-17T00:26:55.678Z,30.70
2023-03-17T00:29:24.295Z,31.23
2023-03-17T00:31:51.288Z,25.70
2023-03-17T00:34:19.574Z,25.55
2023-03-17T00:36:51.197Z,22.90
2023-03-17T00:39:18.842Z,35.47
2023-03-17T00:44:13.156Z,34.28
2023-03-17T00:46:41.530Z,30.75
2023-03-17T00:51:47.337Z,27.88
2023-03-17T00:54:14.530Z,24.98
2023-03-17T00:56:42.379Z,31.35
2023-03-17T00:59:19.452Z,24.83
2023-03-17T01:01:47.625Z,32.60
2023-03-17T01:04:15.693Z,29.27
2023-03-17T01:06:43.367Z,26.92
2023-03-17T01:09:16.375Z,34.10
2023-03-17T01:11:44.178Z,35.08
2023-03-17T01:14:12.541Z,27.08
2023-03-17T01:16:39.722Z,29.23
2023-03-17T01:19:06.884Z,33.08
2023-03-17T01:21:33.678Z,25.88
2023-03-17T01:24:00.580Z,31.10
2023-03-17T01:26:27.523Z,29.92
2023-03-17T01:28:54.788Z,30.33
2023-03-17T01:31:23.551Z,30.92
2023-03-17T01:33:51.317Z,27.42
2023-03-17T01:36:18.414Z,31.58
2023-03-17T01:38:48.184Z,37.42
2023-03-17T01:41:15.172Z,27.80
2023-03-17T01:43:42.606Z,32.17
2023-03-17T01:46:29.373Z,30.80
2023-03-17T01:49:09.454Z,25.17
2023-03-17T01:52:01.930Z,37.88
2023-03-17T01:54:50.447Z,25.35
2023-03-17T01:57:26.681Z,26.40
2023-03-17T01:59:58.400Z,33.15
2023-03-17T02:02:31.935Z,26.08
2023-03-17T02:04:59.460Z,33.88
2023-03-17T02:07:28.060Z,38.60
2023-03-17T02:09:57.102Z,33.90
2023-03-17T02:12:25.696Z,38.88
2023-03-17T02:14:52.916Z,35.28
2023-03-17T02:17:22.150Z,45.75
2023-03-17T02:19:49.668Z,38.40
2023-03-17T02:22:20.328Z,49.70
2023-03-17T02:24:58.321Z,42.00
2023-03-17T02:27:34.837Z,34.92
2023-03-17T02:30:02.544Z,28.92
2023-03-17T02:32:29.487Z,34.80
2023-03-17T02:34:56.303Z,30.75
2023-03-17T02:37:23.660Z,36.28
2023-03-17T02:39:50.515Z,34.53
2023-03-17T02:42:17.839Z,37.45
2023-03-17T02:44:45.486Z,27.50
2023-03-17T02:47:13.231Z,31.23
2023-03-17T02:49:41.639Z,36.63
2023-03-17T02:52:09.353Z,35.40
2023-03-17T02:54:36.649Z,37.30
2023-03-17T02:57:03.425Z,36.08
2023-03-17T02:59:30.247Z,31.90
2023-03-17T03:01:57.276Z,31.88
2023-03-17T03:04:24.477Z,30.45
2023-03-17T03:06:51.368Z,31.08
2023-03-17T03:09:18.216Z,34.28
2023-03-17T03:11:45.219Z,30.20
2023-03-17T03:14:12.084Z,49.05
2023-03-17T03:16:39.273Z,34.70
2023-03-17T03:19:07.847Z,38.30
2023-03-17T03:21:34.995Z,37.95
2023-03-17T03:24:02.240Z,44.25
2023-03-17T03:26:29.402Z,42.25
2023-03-17T03:28:58.493Z,37.25
2023-03-17T03:31:26.226Z,42.53
2023-03-17T03:33:53.279Z,53.63
2023-03-17T03:36:20.441Z,40.40
2023-03-17T03:38:47.319Z,48.00
2023-03-17T03:41:14.321Z,46.33
2023-03-17T03:43:41.442Z,40.47
2023-03-17T03:46:08.513Z,49.25
2023-03-17T03:48:35.438Z,45.45
2023-03-17T03:51:03.193Z,46.63
2023-03-17T03:53:30.241Z,40.70
2023-03-17T03:55:57.149Z,43.83
2023-03-17T03:58:23.883Z,51.05
2023-03-17T04:00:51.206Z,47.55
2023-03-17T04:03:18.010Z,43.13
2023-03-17T04:05:44.835Z,37.00
2023-03-17T04:08:11.679Z,36.83
2023-03-17T04:10:38.532Z,48.00
2023-03-17T04:13:05.482Z,41.22
2023-03-17T04:15:32.269Z,37.85
2023-03-17T04:17:59.061Z,42.97
2023-03-17T04:20:26.053Z,44.42
2023-03-17T04:22:52.843Z,36.50
2023-03-17T04:25:19.746Z,45.45
2023-03-17T04:27:46.697Z,37.53
2023-03-17T04:30:14.640Z,35.78
2023-03-17T04:32:42.026Z,44.22
2023-03-17T04:35:12.978Z,39.40
2023-03-17T04:37:39.887Z,36.65
2023-03-17T04:40:10.063Z,40.17
2023-03-17T04:42:37.770Z,38.60
2023-03-17T04:45:06.473Z,46.78
2023-03-17T04:47:33.693Z,39.50
2023-03-17T04:50:00.496Z,46.28
2023-03-17T04:52:27.537Z,39.72
2023-03-17T04:54:54.320Z,44.50
2023-03-17T04:57:21.312Z,37.38
2023-03-17T04:59:48.127Z,36.45
2023-03-17T05:02:14.918Z,38.13
2023-03-17T05:04:42.211Z,31.75
2023-03-17T05:07:09.023Z,35.70
2023-03-17T05:09:35.889Z,35.78
2023-03-17T05:12:02.776Z,31.88
2023-03-17T05:14:29.548Z,33.38
2023-03-17T05:16:56.338Z,28.80
2023-03-17T05:19:23.206Z,36.15
2023-03-17T05:21:49.970Z,32.22
2023-03-17T05:24:16.829Z,37.05
2023-03-17T05:26:44.644Z,34.92
2023-03-17T05:29:11.477Z,36.60
2023-03-17T05:31:38.562Z,40.67
2023-03-17T05:34:05.739Z,37.55
2023-03-17T05:36:34.127Z,36.38
2023-03-17T05:39:00.958Z,34.92
2023-03-17T05:41:28.387Z,38.35
2023-03-17T05:43:55.960Z,41.00
2023-03-17T05:46:22.902Z,34.30
2023-03-17T05:48:49.684Z,32.00
2023-03-17T05:51:16.715Z,37.75
2023-03-17T05:53:43.890Z,36.15
2023-03-17T05:56:10.668Z,34.05
2023-03-17T05:58:37.524Z,31.27
2023-03-17T06:01:04.458Z,30.40
2023-03-17T06:03:31.479Z,38.53
2023-03-17T06:05:58.309Z,27.30
2023-03-17T06:08:25.323Z,34.63
2023-03-17T06:10:52.247Z,30.77
2023-03-17T06:13:19.033Z,37.17
2023-03-17T06:15:48.582Z,36.47
2023-03-17T06:18:15.518Z,29.75
2023-03-17T06:20:42.303Z,27.00
2023-03-17T06:23:09.095Z,30.02
2023-03-17T06:25:36.093Z,35.30
2023-03-17T06:28:05.508Z,31.35
2023-03-17T06:30:33.959Z,34.03
2023-03-17T06:33:01.688Z,30.60
2023-03-17T06:35:29.765Z,39.58
2023-03-17T06:37:56.859Z,28.05
2023-03-17T06:40:23.746Z,35.97
2023-03-17T06:42:51.103Z,28.05
2023-03-17T06:45:18.301Z,38.58
2023-03-17T06:47:45.093Z,32.78
2023-03-17T06:50:12.746Z,30.38
2023-03-17T06:52:40.237Z,33.25
2023-03-17T06:55:08.655Z,33.15
2023-03-17T06:57:36.586Z,33.92
2023-03-17T07:00:06.434Z,33.15
2023-03-17T07:02:34.273Z,37.50
2023-03-17T07:05:01.460Z,44.83
2023-03-17T07:07:28.532Z,38.20
2023-03-17T07:09:55.362Z,33.13
2023-03-17T07:12:23.060Z,25.00
2023-03-17T07:14:50.397Z,34.90
2023-03-17T07:17:17.256Z,31.83
2023-03-17T07:19:44.798Z,33.20
2023-03-17T07:22:14.701Z,32.15
2023-03-17T07:24:43.217Z,36.00
2023-03-17T07:27:10.751Z,27.67
2023-03-17T07:29:37.635Z,26.00
2023-03-17T07:32:07.090Z,28.00
2023-03-17T07:34:34.592Z,34.95
2023-03-17T07:37:01.884Z,25.63
2023-03-17T07:39:28.765Z,35.85
2023-03-17T07:41:55.669Z,32.72
2023-03-17T07:44:23.131Z,33.30
2023-03-17T07:46:50.791Z,30.10
2023-03-17T07:49:27.638Z,26.48
2023-03-17T07:52:01.110Z,20.70
2023-03-17T07:54:29.203Z,20.42
2023-03-17T07:56:57.008Z,26.67
2023-03-17T07:59:24.092Z,23.20
2023-03-17T08:01:50.999Z,24.50
2023-03-17T08:04:17.955Z,23.65
2023-03-17T08:06:46.502Z,15.68
2023-03-17T08:09:13.490Z,16.10
2023-03-17T08:11:40.710Z,24.55
2023-03-17T08:14:08.043Z,16.20
2023-03-17T08:16:34.912Z,14.75
2023-03-17T08:19:03.922Z,9.70
2023-03-17T08:21:31.036Z,14.05
2023-03-17T08:23:57.823Z,11.65
2023-03-17T08:26:25.553Z,12.95
2023-03-17T08:28:52.574Z,12.00
2023-03-17T08:31:21.643Z,13.68
2023-03-17T08:33:53.513Z,11.45
2023-03-17T08:36:21.581Z,6.95
2023-03-17T08:38:48.494Z,6.45
2023-03-17T08:41:18.810Z,12.18
2023-03-17T08:43:46.108Z,7.07
2023-03-17T08:46:36.090Z,4.32
2023-03-17T08:49:03.424Z,5.07
2023-03-17T08:51:34.416Z,7.57
2023-03-17T08:54:02.048Z,7.82
2023-03-17T08:56:29.038Z,12.80
2023-03-17T08:58:56.034Z,11.20
2023-03-17T09:01:24.422Z,7.65
2023-03-17T09:03:53.473Z,11.05
2023-03-17T09:06:21.397Z,9.43
2023-03-17T09:08:55.019Z,7.05
2023-03-17T09:11:24.931Z,5.90
2023-03-17T09:13:52.085Z,7.85
2023-03-17T09:16:19.270Z,5.75
2023-03-17T09:18:46.818Z,9.70
2023-03-17T09:21:14.941Z,5.88
2023-03-17T09:23:42.322Z,7.57
2023-03-17T09:26:10.231Z,8.00
2023-03-17T09:28:37.333Z,8.27
2023-03-17T09:31:07.844Z,5.90
2023-03-17T09:33:35.028Z,5.72
2023-03-17T09:36:02.165Z,8.40
2023-03-17T09:38:29.239Z,4.32
2023-03-17T09:41:05.204Z,7.88
2023-03-17T09:43:48.297Z,8.45
2023-03-17T09:46:39.344Z,9.05
2023-03-17T09:49:11.967Z,9.27
2023-03-17T09:51:39.391Z,7.30
2023-03-17T09:54:21.913Z,4.22
2023-03-17T09:56:54.875Z,5.47
2023-03-17T09:59:33.243Z,7.13
2023-03-17T10:02:00.233Z,7.03
2023-03-17T10:04:27.691Z,6.32
2023-03-17T10:07:02.203Z,5.85
2023-03-17T10:10:01.519Z,4.70
2023-03-17T10:13:03.353Z,9.85
2023-03-17T10:15:57.996Z,6.00
2023-03-17T10:18:29.885Z,6.30
2023-03-17T10:21:03.580Z,3.95
2023-03-17T10:23:33.179Z,6.30
2023-03-17T10:26:08.443Z,3.95
2023-03-17T10:28:36.541Z,4.63
2023-03-17T10:31:15.580Z,10.68
2023-03-17T10:33:43.885Z,2.90
2023-03-17T10:36:14.597Z,7.53
2023-03-17T10:38:41.447Z,4.40
2023-03-17T10:41:13.625Z,5.63
2023-03-17T10:43:53.649Z,4.82
2023-03-17T10:46:24.437Z,3.38
2023-03-17T10:48:57.663Z,5.40
2023-03-17T10:51:32.994Z,11.27
2023-03-17T10:54:02.080Z,6.07
2023-03-17T10:56:34.444Z,10.38
2023-03-17T10:59:07.299Z,9.38
2023-03-17T11:01:40.158Z,4.63
2023-03-17T11:04:27.501Z,6.95
2023-03-17T11:06:58.426Z,6.80
2023-03-17T11:09:28.124Z,12.23
2023-03-17T11:12:19.066Z,8.10
2023-03-17T11:14:48.188Z,5.57
2023-03-17T11:17:26.073Z,7.65
2023-03-17T11:20:09.566Z,9.00
2023-03-17T11:22:43.129Z,7.03
2023-03-17T11:25:19.690Z,10.15
2023-03-17T11:27:58.749Z,10.45
2023-03-17T11:30:30.765Z,8.48
2023-03-17T11:33:16.119Z,9.13
2023-03-17T11:36:23.407Z,6.25
2023-03-17T11:39:18.960Z,9.95
2023-03-17T11:42:06.010Z,5.43
2023-03-17T11:44:41.654Z,12.27
2023-03-17T11:47:46.995Z,11.60
2023-03-17T11:50:16.687Z,7.10
2023-03-17T11:53:12.137Z,8.40
2023-03-17T11:55:47.112Z,11.27
2023-03-17T11:58:37.076Z,10.70
2023-03-17T12:01:10.358Z,5.82
2023-03-17T12:04:03.172Z,16.88
2023-03-17T12:06:34.494Z,9.93
2023-03-17T12:09:14.375Z,13.18
2023-03-17T12:11:44.754Z,14.27
2023-03-17T12:14:39.950Z,10.30
2023-03-17T12:17:25.796Z,9.77
2023-03-17T12:20:07.132Z,13.25
2023-03-17T12:22:44.074Z,9.05
2023-03-17T12:25:21.425Z,15.40
2023-03-17T12:28:16.116Z,14.20
2023-03-17T12:31:06.902Z,10.57
2023-03-17T12:33:53.601Z,7.03
2023-03-17T12:36:21.930Z,22.35
2023-03-17T12:38:56.951Z,10.93
2023-03-17T12:41:34.865Z,9.65
2023-03-17T12:44:23.877Z,8.90
2023-03-17T12:47:17.228Z,13.27
2023-03-17T12:49:56.094Z,12.35
2023-03-17T12:52:30.409Z,8.32
2023-03-17T12:55:01.378Z,7.70
2023-03-17T12:57:37.565Z,8.05
2023-03-17T13:00:15.408Z,8.45
2023-03-17T13:02:49.602Z,8.93
2023-03-17T13:05:27.608Z,7.32
2023-03-17T13:07:59.721Z,4.82
2023-03-17T13:10:35.588Z,5.28
2023-03-17T13:13:14.095Z,14.17
2023-03-17T13:15:40.931Z,7.95
2023-03-17T13:18:17.014Z,4.50
2023-03-17T13:21:10.389Z,8.90
2023-03-17T13:23:57.830Z,8.90
2023-03-17T13:26:53.638Z,11.20
2023-03-17T13:29:40.960Z,14.68
2023-03-17T13:32:32.140Z,6.75
2023-03-17T13:35:02.216Z,8.33
2023-03-17T13:37:40.410Z,10.67
2023-03-17T13:40:13.612Z,16.67
2023-03-17T13:43:01.400Z,6.90
2023-03-17T13:45:44.588Z,9.60
2023-03-17T13:48:33.671Z,7.88
2023-03-17T13:51:22.681Z,8.15
2023-03-17T13:53:57.655Z,11.55
2023-03-17T13:56:45.314Z,10.80
2023-03-17T13:59:15.546Z,10.50
2023-03-17T14:01:57.766Z,7.47
2023-03-17T14:04:35.759Z,11.35
2023-03-17T14:07:10.177Z,7.70
2023-03-17T14:09:42.166Z,11.57
2023-03-17T14:12:40.413Z,8.52
2023-03-17T14:15:35.003Z,10.50
2023-03-17T14:18:14.291Z,8.30
2023-03-17T14:20:51.826Z,7.33
2023-03-17T14:23:18.618Z,9.85
2023-03-17T14:25:45.466Z,14.43
2023-03-17T14:28:16.705Z,7.70
2023-03-17T14:30:52.787Z,12.40
2023-03-17T14:33:31.102Z,11.32
2023-03-17T14:36:00.777Z,12.15
2023-03-17T14:38:27.539Z,11.27
2023-03-17T14:41:16.510Z,11.50
2023-03-17T14:43:44.364Z,12.98
2023-03-17T14:46:17.642Z,11.20
2023-03-17T14:48:48.850Z,16.38
2023-03-17T14:51:30.517Z,9.30
2023-03-17T14:54:00.975Z,5.55
2023-03-17T14:56:35.358Z,5.38
2023-03-17T14:59:32.031Z,11.40
2023-03-17T15:02:02.057Z,11.25
2023-03-17T15:04:31.618Z,9.68
2023-03-17T15:07:04.628Z,13.55
2023-03-17T15:09:34.391Z,9.60
2023-03-17T15:12:18.568Z,9.88
2023-03-17T15:14:46.623Z,10.38
2023-03-17T15:17:28.795Z,9.20
2023-03-17T15:20:02.009Z,11.98
2023-03-17T15:22:34.618Z,11.40
2023-03-17T15:25:02.707Z,19.27
2023-03-17T15:27:31.238Z,4.85
2023-03-17T15:29:58.466Z,4.53
2023-03-17T15:32:27.675Z,6.60
2023-03-17T15:34:59.327Z,8.63
2023-03-17T15:37:28.984Z,5.55
2023-03-17T15:39:57.126Z,13.68
2023-03-17T15:42:29.053Z,8.43
2023-03-17T15:44:56.303Z,7.40
2023-03-17T15:47:27.061Z,5.30
2023-03-17T15:49:58.128Z,10.10
2023-03-17T15:52:26.824Z,7.67
2023-03-17T15:54:55.895Z,8.35
2023-03-17T15:57:23.147Z,8.00
2023-03-17T15:59:50.590Z,10.80
2023-03-17T16:02:31.886Z,10.33
2023-03-17T16:05:02.171Z,8.00
2023-03-17T16:07:31.016Z,10.50
2023-03-17T16:09:58.052Z,7.85
2023-03-17T16:12:25.264Z,7.15
2023-03-17T16:14:51.991Z,9.05
2023-03-17T16:17:29.049Z,10.15
2023-03-17T16:19:59.894Z,6.03
2023-03-17T16:22:42.075Z,11.75
2023-03-17T16:25:29.388Z,5.45
2023-03-17T16:27:58.599Z,8.13
2023-03-17T16:30:34.437Z,8.80
2023-03-17T16:33:08.811Z,7.90
2023-03-17T16:35:35.861Z,5.95
2023-03-17T16:38:02.635Z,5.07
2023-03-17T16:40:35.622Z,8.55
2023-03-17T16:43:24.526Z,4.97
2023-03-17T16:45:54.635Z,11.82
2023-03-17T16:48:21.547Z,6.85
2023-03-17T16:50:49.034Z,9.95
2023-03-17T16:53:15.789Z,8.93
2023-03-17T16:55:43.739Z,13.27
2023-03-17T16:58:29.154Z,8.27
2023-03-17T17:00:59.989Z,10.27
2023-03-17T17:03:27.563Z,10.32
2023-03-17T17:05:54.416Z,11.93
2023-03-17T17:08:22.232Z,15.40
2023-03-17T17:10:49.148Z,11.30
2023-03-17T17:13:16.174Z,6.72
2023-03-17T17:15:43.481Z,8.68
2023-03-17T17:18:17.165Z,9.73
2023-03-17T17:20:45.285Z,16.30
2023-03-17T17:23:15.350Z,13.23
2023-03-17T17:25:43.096Z,6.47
2023-03-17T17:28:11.261Z,5.88
2023-03-17T17:30:38.241Z,6.82
2023-03-17T17:33:05.660Z,10.50
2023-03-17T17:35:33.264Z,8.27
2023-03-17T17:38:04.081Z,11.73
2023-03-17T17:40:32.040Z,6.22
2023-03-17T17:42:59.238Z,7.93
2023-03-17T17:45:26.268Z,9.48
2023-03-17T17:47:53.061Z,12.68
2023-03-17T17:50:26.234Z,14.23
2023-03-17T17:52:53.241Z,11.98
2023-03-17T17:55:20.694Z,12.57
2023-03-17T17:57:47.552Z,12.55
2023-03-17T18:00:17.242Z,17.20
2023-03-17T18:02:44.875Z,13.48
2023-03-17T18:05:12.428Z,12.75
2023-03-17T18:07:40.076Z,11.82
2023-03-17T18:10:08.164Z,18.17
2023-03-17T18:12:34.974Z,20.63
2023-03-17T18:15:01.779Z,14.85
2023-03-17T18:17:30.669Z,14.60
2023-03-17T18:19:59.177Z,15.07
2023-03-17T18:22:25.949Z,15.38
2023-03-17T18:24:53.223Z,19.40
2023-03-17T18:27:19.988Z,13.30
2023-03-17T18:29:47.337Z,14.77
2023-03-17T18:32:14.224Z,13.88
2023-03-17T18:34:45.141Z,19.45
2023-03-17T18:37:17.500Z,25.05
2023-03-17T18:39:48.458Z,16.60
2023-03-17T18:42:19.819Z,28.48
2023-03-17T18:44:46.604Z,18.48
2023-03-17T18:47:15.901Z,15.18
2023-03-17T18:49:45.442Z,18.92
2023-03-17T18:52:13.582Z,17.30
2023-03-17T18:54:40.400Z,11.80
2023-03-17T18:57:07.156Z,11.85
2023-03-17T18:59:34.438Z,15.13
2023-03-17T19:02:01.182Z,12.07
2023-03-17T19:04:28.015Z,12.77
2023-03-17T19:06:55.975Z,21.83
2023-03-17T19:09:22.810Z,15.30
2023-03-17T19:11:49.550Z,18.92
2023-03-17T19:14:16.374Z,11.77
2023-03-17T19:16:43.259Z,18.33
2023-03-17T19:19:10.039Z,14.40
2023-03-17T19:21:37.439Z,17.23
2023-03-17T19:24:04.969Z,15.02
2023-03-17T19:26:33.455Z,16.60
2023-03-17T19:29:00.510Z,14.75
2023-03-17T19:31:27.380Z,15.77
2023-03-17T19:33:55.468Z,18.63
2023-03-17T19:36:22.300Z,19.08
2023-03-17T19:38:50.100Z,21.13
2023-03-17T19:41:17.861Z,15.68
2023-03-17T19:43:44.865Z,17.40
2023-03-17T19:46:12.470Z,17.45
2023-03-17T19:48:39.784Z,13.73
2023-03-17T19:51:06.899Z,20.15
2023-03-17T19:53:34.203Z,18.02
2023-03-17T19:56:01.197Z,14.85
2023-03-17T19:58:28.035Z,19.55
2023-03-17T20:00:54.916Z,18.20
2023-03-17T20:03:23.134Z,15.38
2023-03-17T20:05:54.041Z,16.92
2023-03-17T20:08:22.414Z,21.58
2023-03-17T20:10:53.953Z,14.82
2023-03-17T20:13:22.005Z,15.60
2023-03-17T20:15:50.180Z,18.73
2023-03-17T20:18:18.701Z,20.30
2023-03-17T20:20:51.093Z,14.98
2023-03-17T20:23:18.113Z,12.73
2023-03-17T20:25:45.431Z,18.27
2023-03-17T20:28:12.799Z,17.00
2023-03-17T20:30:40.078Z,17.88
2023-03-17T20:33:08.236Z,16.65
2023-03-17T20:35:35.522Z,16.40
2023-03-17T20:38:02.793Z,17.90
2023-03-17T20:40:29.821Z,16.05
2023-03-17T20:42:57.153Z,16.95
2023-03-17T20:45:24.465Z,16.95
2023-03-17T20:47:51.475Z,20.10
2023-03-17T20:50:18.307Z,15.82
2023-03-17T20:52:45.215Z,14.18
2023-03-17T20:55:15.149Z,13.70
2023-03-17T20:57:43.094Z,15.23
2023-03-17T21:00:16.323Z,16.10
2023-03-17T21:02:43.726Z,13.93
2023-03-17T21:05:15.437Z,18.00
2023-03-17T21:07:42.310Z,10.23
2023-03-17T21:10:09.794Z,14.68
2023-03-17T21:12:36.541Z,18.08
2023-03-17T21:15:03.618Z,11.23
2023-03-17T21:17:30.802Z,13.63
2023-03-17T21:19:57.608Z,29.45
2023-03-17T21:22:24.703Z,15.43
2023-03-17T21:24:52.063Z,13.68
2023-03-17T21:27:19.258Z,15.93
2023-03-17T21:29:46.078Z,12.68
2023-03-17T21:32:12.851Z,16.48
2023-03-17T21:34:39.681Z,10.27
2023-03-17T21:37:06.546Z,8.27
2023-03-17T21:39:33.979Z,10.18
2023-03-17T21:42:02.116Z,16.80
2023-03-17T21:44:29.074Z,13.55
2023-03-17T21:46:56.944Z,9.68
2023-03-17T21:49:24.803Z,16.98
2023-03-17T21:51:51.831Z,10.63
2023-03-17T21:54:19.385Z,15.23
2023-03-17T21:56:46.333Z,14.75
2023-03-17T21:59:14.688Z,10.13
2023-03-17T22:01:43.218Z,12.68
2023-03-17T22:04:11.214Z,12.30
2023-03-17T22:06:38.387Z,14.07
2023-03-17T22:09:05.917Z,12.65
2023-03-17T22:11:32.662Z,14.38
2023-03-17T22:13:59.824Z,12.98
2023-03-17T22:16:27.179Z,12.25
2023-03-17T22:18:54.273Z,14.88
2023-03-17T22:21:21.684Z,7.57
2023-03-17T22:23:48.645Z,10.45
2023-03-17T22:26:18.546Z,12.68
2023-03-17T22:28:47.081Z,9.80
2023-03-17T22:31:16.906Z,14.10
2023-03-17T22:33:44.202Z,9.10
2023-03-17T22:36:11.708Z,13.80
2023-03-17T22:38:38.614Z,10.25
2023-03-17T22:41:08.962Z,17.75
2023-03-17T22:43:36.728Z,13.38
2023-03-17T22:46:04.251Z,9.45
2023-03-17T22:48:32.684Z,13.18
2023-03-17T22:51:03.658Z,9.38
2023-03-17T22:53:31.553Z,12.57
2023-03-17T22:55:58.678Z,10.90
2023-03-17T22:58:26.108Z,11.95
2023-03-17T23:00:53.870Z,18.50
2023-03-17T23:03:21.123Z,10.80
2023-03-17T23:05:49.877Z,11.18
2023-03-17T23:08:18.954Z,9.82
2023-03-17T23:10:47.622Z,14.82
2023-03-17T23:13:14.731Z,13.52
2023-03-17T23:15:41.677Z,8.65
2023-03-17T23:18:09.315Z,14.02
2023-03-17T23:20:37.159Z,11.15
2023-03-17T23:23:04.846Z,12.73
2023-03-17T23:25:31.639Z,10.23
2023-03-17T23:27:58.407Z,7.82
2023-03-17T23:30:25.383Z,7.63
2023-03-17T23:32:52.553Z,8.00
2023-03-17T23:35:20.433Z,11.63
2023-03-17T23:37:47.584Z,8.68
2023-03-17T23:40:18.063Z,7.93
2023-03-17T23:42:48.044Z,10.25
2023-03-17T23:45:16.856Z,8.88
2023-03-17T23:47:44.922Z,9.30
2023-03-17T23:50:12.784Z,7.40
2023-03-17T23:52:39.748Z,7.78
2023-03-17T23:55:06.934Z,9.55
2023-03-17T23:57:34.928Z,11.15
